Time;durP1;ratioP1;P1;durP2;ratioP2;P2;SDS_P1;SDS_P2;PMS_P1;PMS_P2;Temp;Humidity;BMP_temperature;BMP_pressure;BME280_temperature;BME280_humidity;BME280_pressure;Samples;Min_cycle;Max_cycle;Signal;HPM_P1;HPM_P2
2023/12/09 00:02:46;;;;;;;2.80;2.03;;;;;;;;;;10498777;28;20119;-73
2023/12/09 00:07:49;;;;;;;2.97;1.85;;;;;;;;;;10506122;28;20048;-73
2023/12/09 00:12:54;;;;;;;3.53;2.50;;;;;;;;;;10499905;28;20044;-73
2023/12/09 00:17:57;;;;;;;2.08;1.83;;;;;;;;;;10506946;28;20049;-73
2023/12/09 00:23:01;;;;;;;2.25;1.70;;;;;;;;;;10495700;28;20082;-73
2023/12/09 00:28:05;;;;;;;2.30;1.45;;;;;;;;;;10498273;28;20041;-73
2023/12/09 00:33:09;;;;;;;3.17;1.65;;;;;;;;;;10504254;28;20044;-73
2023/12/09 00:38:12;;;;;;;2.08;1.33;;;;;;;;;;10504543;28;20539;-73
2023/12/09 00:43:17;;;;;;;2.33;1.67;;;;;;;;;;10507558;28;20521;-72
2023/12/09 00:48:20;;;;;;;2.33;1.30;;;;;;;;;;10495084;28;20043;-73
2023/12/09 00:53:23;;;;;;;1.08;0.95;;;;;;;;;;10495453;28;20374;-72
2023/12/09 00:58:28;;;;;;;1.88;1.38;;;;;;;;;;10494587;28;20033;-73
2023/12/09 01:03:31;;;;;;;1.67;1.10;;;;;;;;;;10491212;28;20045;-73
2023/12/09 01:08:34;;;;;;;2.15;1.23;;;;;;;;;;10499152;28;20044;-73
2023/12/09 01:13:39;;;;;;;1.58;1.20;;;;;;;;;;10493586;28;20047;-73
2023/12/09 01:18:42;;;;;;;2.80;1.75;;;;;;;;;;10492930;28;20051;-75
2023/12/09 01:23:45;;;;;;;4.45;2.42;;;;;;;;;;10501841;28;20043;-75
2023/12/09 01:28:50;;;;;;;2.22;1.65;;;;;;;;;;10493083;28;20041;-75
2023/12/09 01:33:53;;;;;;;2.05;1.33;;;;;;;;;;10493670;28;20051;-75
2023/12/09 01:38:57;;;;;;;2.83;1.70;;;;;;;;;;10489040;28;20072;-75
2023/12/09 01:44:02;;;;;;;2.15;1.27;;;;;;;;;;10494800;28;20045;-75
2023/12/09 01:49:06;;;;;;;1.50;1.03;;;;;;;;;;10495573;28;20119;-75
2023/12/09 01:54:10;;;;;;;2.40;1.30;;;;;;;;;;10492042;28;20135;-76
2023/12/09 01:59:15;;;;;;;2.58;1.35;;;;;;;;;;10496320;28;20119;-73
2023/12/09 02:04:19;;;;;;;3.88;1.48;;;;;;;;;;10492623;28;20041;-73
2023/12/09 02:09:22;;;;;;;2.55;1.27;;;;;;;;;;10495794;28;20044;-73
2023/12/09 02:14:33;;;;;;;2.92;1.45;;;;;;;;;;10492689;28;20049;-73
2023/12/09 02:19:37;;;;;;;2.25;1.17;;;;;;;;;;10499583;28;20040;-73
2023/12/09 02:24:42;;;;;;;3.72;1.48;;;;;;;;;;10494086;28;20055;-73
2023/12/09 02:29:53;;;;;;;3.10;1.15;;;;;;;;;;10494317;28;20045;-72
2023/12/09 02:34:57;;;;;;;2.05;1.30;;;;;;;;;;10493256;28;20076;-73
2023/12/09 02:40:03;;;;;;;1.60;1.20;;;;;;;;;;10483770;28;20447;-73
2023/12/09 02:45:07;;;;;;;2.10;1.15;;;;;;;;;;10490080;28;20503;-73
2023/12/09 02:50:11;;;;;;;2.47;1.13;;;;;;;;;;10489629;28;20035;-75
2023/12/09 02:55:16;;;;;;;1.98;1.20;;;;;;;;;;10497141;28;20040;-75
2023/12/09 03:00:19;;;;;;;2.23;0.90;;;;;;;;;;10496136;28;20041;-75
2023/12/09 03:05:23;;;;;;;1.17;0.93;;;;;;;;;;10486412;28;20053;-75
2023/12/09 03:10:27;;;;;;;3.10;1.25;;;;;;;;;;10491802;28;20036;-75
2023/12/09 03:15:30;;;;;;;1.83;0.88;;;;;;;;;;10496449;28;20048;-75
2023/12/09 03:20:34;;;;;;;2.15;0.90;;;;;;;;;;10488011;28;20441;-75
2023/12/09 03:25:38;;;;;;;3.75;1.48;;;;;;;;;;10491688;28;20040;-75
2023/12/09 03:30:41;;;;;;;2.72;1.52;;;;;;;;;;10491878;28;20500;-75
2023/12/09 03:35:45;;;;;;;5.47;1.73;;;;;;;;;;10487131;28;20036;-75
2023/12/09 03:40:49;;;;;;;3.28;1.40;;;;;;;;;;10492910;28;20059;-75
2023/12/09 03:45:53;;;;;;;2.85;1.30;;;;;;;;;;10491344;28;20040;-75
2023/12/09 03:50:56;;;;;;;2.88;1.33;;;;;;;;;;10493473;28;20040;-75
2023/12/09 03:56:00;;;;;;;2.80;1.33;;;;;;;;;;10487883;28;20037;-75
2023/12/09 04:01:04;;;;;;;1.90;1.30;;;;;;;;;;10491061;28;20471;-75
2023/12/09 04:06:08;;;;;;;2.72;1.45;;;;;;;;;;10487795;28;20131;-75
2023/12/09 04:11:13;;;;;;;1.27;0.95;;;;;;;;;;10489745;28;20049;-75
2023/12/09 04:16:16;;;;;;;1.67;1.00;;;;;;;;;;10487101;28;20048;-75
2023/12/09 04:21:19;;;;;;;1.98;1.10;;;;;;;;;;10490460;28;20047;-76
2023/12/09 04:26:25;;;;;;;3.08;1.17;;;;;;;;;;10486757;28;20040;-75
2023/12/09 04:31:28;;;;;;;1.83;1.45;;;;;;;;;;10490955;28;21859;-75
2023/12/09 04:36:32;;;;;;;2.67;1.15;;;;;;;;;;10480287;28;20436;-75
2023/12/09 04:41:36;;;;;;;2.75;1.25;;;;;;;;;;10484885;28;20036;-75
2023/12/09 04:46:40;;;;;;;2.38;1.20;;;;;;;;;;10492417;28;20040;-75
2023/12/09 04:51:43;;;;;;;1.63;1.10;;;;;;;;;;10497664;28;20046;-72
2023/12/09 04:56:47;;;;;;;4.40;1.13;;;;;;;;;;10499317;28;20033;-75
2023/12/09 05:01:51;;;;;;;1.17;0.98;;;;;;;;;;10494111;28;20045;-75
2023/12/09 05:06:54;;;;;;;1.83;1.15;;;;;;;;;;10496827;28;20040;-75
2023/12/09 05:11:58;;;;;;;2.10;1.25;;;;;;;;;;10496486;28;20049;-75
2023/12/09 05:17:02;;;;;;;3.17;1.17;;;;;;;;;;10492690;28;20127;-75
2023/12/09 05:22:05;;;;;;;3.78;1.30;;;;;;;;;;10493855;28;20036;-75
2023/12/09 05:27:10;;;;;;;2.03;1.20;;;;;;;;;;10495172;28;20059;-75
2023/12/09 05:32:13;;;;;;;3.13;1.50;;;;;;;;;;10495602;28;20051;-75
2023/12/09 05:37:17;;;;;;;4.03;1.42;;;;;;;;;;10494743;28;20044;-75
2023/12/09 05:42:21;;;;;;;1.42;1.27;;;;;;;;;;10495262;28;20041;-76
2023/12/09 05:47:25;;;;;;;3.67;1.73;;;;;;;;;;10492400;28;20496;-75
2023/12/09 05:52:28;;;;;;;3.53;1.30;;;;;;;;;;10494843;28;20047;-75
2023/12/09 05:57:33;;;;;;;2.88;1.33;;;;;;;;;;10636303;22;20163;-74
2023/12/09 06:02:36;;;;;;;2.55;1.35;;;;;;;;;;10572716;28;20126;-74
2023/12/09 06:07:39;;;;;;;1.63;1.17;;;;;;;;;;10572446;28;20047;-74
2023/12/09 06:12:44;;;;;;;2.08;1.17;;;;;;;;;;10572407;28;20039;-74
2023/12/09 06:17:47;;;;;;;2.40;1.30;;;;;;;;;;10574852;28;20074;-74
2023/12/09 06:22:50;;;;;;;2.00;1.20;;;;;;;;;;10575743;28;20081;-74
2023/12/09 06:27:55;;;;;;;1.20;1.10;;;;;;;;;;10574825;28;20067;-74
2023/12/09 06:32:58;;;;;;;1.83;0.98;;;;;;;;;;10575276;27;20845;-74
2023/12/09 06:38:02;;;;;;;2.22;1.40;;;;;;;;;;10564785;28;20044;-74
2023/12/09 06:43:07;;;;;;;2.63;1.38;;;;;;;;;;10574209;28;20042;-74
2023/12/09 06:48:10;;;;;;;1.58;1.20;;;;;;;;;;10567666;28;20040;-74
2023/12/09 06:53:13;;;;;;;2.65;1.42;;;;;;;;;;10574237;27;20127;-74
2023/12/09 06:58:18;;;;;;;1.45;1.30;;;;;;;;;;10572075;28;20089;-74
2023/12/09 07:03:21;;;;;;;2.17;1.35;;;;;;;;;;10574031;28;20047;-74
2023/12/09 07:08:24;;;;;;;2.13;1.52;;;;;;;;;;10572923;27;20096;-74
2023/12/09 07:13:30;;;;;;;1.75;1.30;;;;;;;;;;10567280;28;20037;-74
2023/12/09 07:18:33;;;;;;;2.80;1.35;;;;;;;;;;10564609;28;20035;-74
2023/12/09 07:23:37;;;;;;;1.88;1.55;;;;;;;;;;10571655;28;20048;-74
2023/12/09 07:28:41;;;;;;;2.20;1.65;;;;;;;;;;10570921;28;20522;-74
2023/12/09 07:33:44;;;;;;;3.38;1.83;;;;;;;;;;10572356;28;20052;-74
2023/12/09 07:38:48;;;;;;;3.53;1.65;;;;;;;;;;10573335;27;20119;-74
2023/12/09 07:43:52;;;;;;;2.35;1.63;;;;;;;;;;10566270;28;20683;-74
2023/12/09 07:48:56;;;;;;;2.60;1.80;;;;;;;;;;10571300;28;20036;-74
2023/12/09 07:53:59;;;;;;;3.05;2.05;;;;;;;;;;10566012;28;20067;-74
2023/12/09 07:59:03;;;;;;;3.80;2.20;;;;;;;;;;10571709;28;20052;-74
2023/12/09 08:04:07;;;;;;;4.13;2.50;;;;;;;;;;10574572;28;20047;-74
2023/12/09 08:09:10;;;;;;;3.00;2.17;;;;;;;;;;10572655;28;20044;-74
2023/12/09 08:14:15;;;;;;;4.72;2.50;;;;;;;;;;10574465;28;20123;-74
2023/12/09 08:19:18;;;;;;;3.92;2.28;;;;;;;;;;10572771;28;20403;-74
2023/12/09 08:24:21;;;;;;;5.80;3.10;;;;;;;;;;10580419;28;20047;-74
2023/12/09 08:29:26;;;;;;;5.75;3.13;;;;;;;;;;10572057;27;20123;-74
2023/12/09 08:34:31;;;;;;;7.80;3.75;;;;;;;;;;10580445;28;20051;-74
2023/12/09 08:39:36;;;;;;;5.75;3.55;;;;;;;;;;10576566;27;20040;-74
2023/12/09 08:44:40;;;;;;;6.05;3.53;;;;;;;;;;10578662;28;20346;-74
2023/12/09 08:49:44;;;;;;;8.65;3.90;;;;;;;;;;10572984;28;20032;-74
2023/12/09 08:54:47;;;;;;;8.15;4.05;;;;;;;;;;10579043;28;20111;-74
2023/12/09 08:59:52;;;;;;;10.45;4.28;;;;;;;;;;10573177;27;20042;-74
2023/12/09 09:04:55;;;;;;;8.95;4.20;;;;;;;;;;10573042;28;20409;-74
2023/12/09 09:09:59;;;;;;;9.60;5.00;;;;;;;;;;10573638;28;20031;-74
2023/12/09 09:15:04;;;;;;;10.75;4.60;;;;;;;;;;10576357;28;20100;-74
2023/12/09 09:20:10;;;;;;;9.95;5.35;;;;;;;;;;10576767;28;20389;-74
2023/12/09 09:25:15;;;;;;;9.50;4.93;;;;;;;;;;10576930;28;20091;-74
2023/12/09 09:30:22;;;;;;;8.27;4.18;;;;;;;;;;10576310;28;20183;-74
2023/12/09 09:35:25;;;;;;;8.77;3.95;;;;;;;;;;10576016;28;20719;-74
2023/12/09 09:40:29;;;;;;;8.85;3.85;;;;;;;;;;10576397;27;20055;-74
2023/12/09 09:45:34;;;;;;;6.53;3.22;;;;;;;;;;10576455;28;20139;-74
2023/12/09 09:50:41;;;;;;;6.63;3.25;;;;;;;;;;10570195;28;20067;-74
2023/12/09 09:55:46;;;;;;;8.38;4.15;;;;;;;;;;10578535;27;20100;-74
2023/12/09 10:00:55;;;;;;;10.48;4.93;;;;;;;;;;10575630;28;20043;-74
2023/12/09 10:06:00;;;;;;;9.20;4.13;;;;;;;;;;10575573;28;20442;-74
2023/12/09 10:11:04;;;;;;;12.27;4.20;;;;;;;;;;10575436;28;20040;-74
2023/12/09 10:16:09;;;;;;;10.18;4.40;;;;;;;;;;10571790;28;20043;-74
2023/12/09 10:21:12;;;;;;;9.88;4.05;;;;;;;;;;10566410;28;20036;-74
2023/12/09 10:26:16;;;;;;;10.20;4.20;;;;;;;;;;10567298;28;20140;-74
2023/12/09 10:31:20;;;;;;;8.02;4.68;;;;;;;;;;10571608;28;20069;-74
2023/12/09 10:36:24;;;;;;;10.02;5.00;;;;;;;;;;10572241;28;20428;-75
2023/12/09 10:41:28;;;;;;;9.23;4.28;;;;;;;;;;10573908;28;20035;-74
2023/12/09 10:46:32;;;;;;;12.27;4.13;;;;;;;;;;10573393;28;20051;-74
2023/12/09 10:51:37;;;;;;;11.20;4.03;;;;;;;;;;10564435;27;20661;-74
2023/12/09 10:56:41;;;;;;;13.25;5.20;;;;;;;;;;10570496;28;20123;-74
2023/12/09 11:01:46;;;;;;;12.02;4.32;;;;;;;;;;10566830;28;20385;-74
2023/12/09 11:06:51;;;;;;;5.78;2.60;;;;;;;;;;10572204;28;20067;-74
2023/12/09 11:11:55;;;;;;;5.13;2.63;;;;;;;;;;10570966;28;20036;-73
2023/12/09 11:17:01;;;;;;;5.93;2.47;;;;;;;;;;10570790;28;20053;-74
2023/12/09 11:22:05;;;;;;;10.90;3.72;;;;;;;;;;10563498;28;20038;-74
2023/12/09 11:27:08;;;;;;;6.78;3.03;;;;;;;;;;10575543;27;20047;-74
2023/12/09 11:32:14;;;;;;;7.28;2.60;;;;;;;;;;10573702;27;20058;-74
2023/12/09 11:37:18;;;;;;;7.82;2.55;;;;;;;;;;10570341;28;20036;-74
2023/12/09 11:42:22;;;;;;;3.20;1.77;;;;;;;;;;10565140;28;20396;-74
2023/12/09 11:47:28;;;;;;;3.88;1.90;;;;;;;;;;10563817;28;20062;-74
2023/12/09 11:52:31;;;;;;;5.17;2.60;;;;;;;;;;10561768;28;20118;-74
2023/12/09 11:57:34;;;;;;;9.23;2.92;;;;;;;;;;10604529;22;20058;-75
2023/12/09 12:02:39;;;;;;;6.78;2.30;;;;;;;;;;10604772;27;20047;-75
2023/12/09 12:07:42;;;;;;;3.97;1.90;;;;;;;;;;10616232;27;20049;-75
2023/12/09 12:12:46;;;;;;;5.47;2.47;;;;;;;;;;10620674;27;20487;-75
2023/12/09 12:17:50;;;;;;;8.43;3.20;;;;;;;;;;10616362;27;20547;-75
2023/12/09 12:22:54;;;;;;;7.25;2.85;;;;;;;;;;10613768;27;20138;-75
2023/12/09 12:27:58;;;;;;;6.80;2.50;;;;;;;;;;10616870;27;20035;-75
2023/12/09 12:33:03;;;;;;;6.93;2.22;;;;;;;;;;10604826;27;20036;-75
2023/12/09 12:38:07;;;;;;;6.85;2.83;;;;;;;;;;10616353;27;20491;-75
2023/12/09 12:43:12;;;;;;;5.25;2.22;;;;;;;;;;10620409;27;20038;-75
2023/12/09 12:48:18;;;;;;;8.27;3.67;;;;;;;;;;10614725;27;20055;-75
2023/12/09 12:53:22;;;;;;;7.13;2.63;;;;;;;;;;10615419;27;20051;-75
2023/12/09 12:58:26;;;;;;;4.13;2.20;;;;;;;;;;10615522;27;20096;-75
2023/12/09 13:03:31;;;;;;;5.00;1.70;;;;;;;;;;10619688;27;20126;-75
2023/12/09 13:08:35;;;;;;;4.37;2.13;;;;;;;;;;10606391;27;20047;-74
2023/12/09 13:13:38;;;;;;;5.05;2.13;;;;;;;;;;10613340;27;20054;-75
2023/12/09 13:18:43;;;;;;;7.45;2.97;;;;;;;;;;10618564;27;20113;-75
2023/12/09 13:23:46;;;;;;;3.75;2.17;;;;;;;;;;10610710;27;20560;-75
2023/12/09 13:28:49;;;;;;;5.65;2.78;;;;;;;;;;10608139;27;20133;-75
2023/12/09 13:33:54;;;;;;;6.10;2.60;;;;;;;;;;10614716;27;20043;-75
2023/12/09 13:38:57;;;;;;;3.83;1.98;;;;;;;;;;10617490;27;20046;-75
2023/12/09 13:44:01;;;;;;;5.10;2.50;;;;;;;;;;10615569;27;20043;-75
2023/12/09 13:49:06;;;;;;;7.32;2.80;;;;;;;;;;10613959;27;20031;-76
2023/12/09 13:54:09;;;;;;;7.97;3.28;;;;;;;;;;10609597;27;20043;-76
2023/12/09 13:59:13;;;;;;;5.40;2.00;;;;;;;;;;10615700;27;20039;-76
2023/12/09 14:04:17;;;;;;;5.88;2.58;;;;;;;;;;10610625;27;20050;-76
2023/12/09 14:09:21;;;;;;;5.88;2.25;;;;;;;;;;10613206;27;20612;-76
2023/12/09 14:14:24;;;;;;;5.10;2.85;;;;;;;;;;10616922;27;20031;-76
2023/12/09 14:19:29;;;;;;;3.88;1.67;;;;;;;;;;10607429;27;20044;-76
2023/12/09 14:24:33;;;;;;;5.50;2.40;;;;;;;;;;10611353;27;20073;-76
2023/12/09 14:29:36;;;;;;;2.85;1.70;;;;;;;;;;10612355;27;20118;-76
2023/12/09 14:34:41;;;;;;;3.95;1.40;;;;;;;;;;10612774;27;20038;-75
2023/12/09 14:39:45;;;;;;;4.25;1.50;;;;;;;;;;10613970;27;20100;-76
2023/12/09 14:44:48;;;;;;;2.05;1.08;;;;;;;;;;10612895;27;20043;-76
2023/12/09 14:49:53;;;;;;;2.80;1.35;;;;;;;;;;10617401;27;20471;-76
2023/12/09 14:54:57;;;;;;;7.82;2.97;;;;;;;;;;10615170;27;20524;-75
2023/12/09 15:00:00;;;;;;;3.38;1.80;;;;;;;;;;10614634;27;20114;-76
2023/12/09 15:05:06;;;;;;;4.68;1.35;;;;;;;;;;10612303;27;20085;-76
2023/12/09 15:10:10;;;;;;;3.63;1.40;;;;;;;;;;10613285;27;20047;-76
2023/12/09 15:15:16;;;;;;;6.33;1.43;;;;;;;;;;10608153;27;20046;-75
2023/12/09 15:20:21;;;;;;;1.63;0.70;;;;;;;;;;10616136;27;20049;-75
2023/12/09 15:25:24;;;;;;;2.97;1.15;;;;;;;;;;10610845;27;20043;-75
2023/12/09 15:30:30;;;;;;;3.05;1.42;;;;;;;;;;10613383;27;20126;-76
2023/12/09 15:35:34;;;;;;;1.17;0.90;;;;;;;;;;10612134;27;20047;-76
2023/12/09 15:40:37;;;;;;;1.00;0.75;;;;;;;;;;10606081;27;20043;-76
2023/12/09 15:45:41;;;;;;;0.80;0.80;;;;;;;;;;10613839;27;20395;-75
2023/12/09 15:50:45;;;;;;;1.25;0.75;;;;;;;;;;10616167;27;20043;-76
2023/12/09 15:55:50;;;;;;;1.25;0.70;;;;;;;;;;10613234;28;20058;-76
2023/12/09 16:00:53;;;;;;;1.48;0.70;;;;;;;;;;10612191;28;20795;-75
2023/12/09 16:05:58;;;;;;;0.60;0.60;;;;;;;;;;10608779;28;20072;-75
2023/12/09 16:11:01;;;;;;;1.55;0.73;;;;;;;;;;10613807;28;20035;-76
2023/12/09 16:16:07;;;;;;;1.65;0.90;;;;;;;;;;10607651;28;20043;-75
2023/12/09 16:21:11;;;;;;;0.75;0.65;;;;;;;;;;10615305;27;20039;-75
2023/12/09 16:26:15;;;;;;;1.42;0.60;;;;;;;;;;10610617;27;20039;-76
2023/12/09 16:31:18;;;;;;;0.70;0.65;;;;;;;;;;10610967;27;20119;-76
2023/12/09 16:36:22;;;;;;;1.27;0.80;;;;;;;;;;10607052;27;20472;-75
2023/12/09 16:41:26;;;;;;;1.20;0.60;;;;;;;;;;10611409;27;20031;-76
2023/12/09 16:46:29;;;;;;;0.77;0.70;;;;;;;;;;10620163;27;20028;-76
2023/12/09 16:51:34;;;;;;;1.67;0.75;;;;;;;;;;10622610;27;20691;-76
2023/12/09 16:56:37;;;;;;;1.02;0.60;;;;;;;;;;10620148;27;20487;-75
2023/12/09 17:01:41;;;;;;;0.73;0.60;;;;;;;;;;10618919;27;20047;-76
2023/12/09 17:06:47;;;;;;;1.13;0.73;;;;;;;;;;10620097;27;20114;-75
2023/12/09 17:11:52;;;;;;;0.98;0.50;;;;;;;;;;10619525;27;20049;-76
2023/12/09 17:16:56;;;;;;;0.70;0.60;;;;;;;;;;10602441;27;20792;-76
2023/12/09 17:22:01;;;;;;;0.50;0.50;;;;;;;;;;10616710;27;20095;-76
2023/12/09 17:27:05;;;;;;;2.70;0.63;;;;;;;;;;10618658;27;20364;-75
2023/12/09 17:32:08;;;;;;;0.40;0.40;;;;;;;;;;10615161;27;20543;-76
2023/12/09 17:37:12;;;;;;;0.65;0.65;;;;;;;;;;10618487;27;20039;-75
2023/12/09 17:42:16;;;;;;;1.00;0.57;;;;;;;;;;10611024;27;20130;-75
2023/12/09 17:47:19;;;;;;;1.55;0.70;;;;;;;;;;10613677;27;20045;-75
2023/12/09 17:52:27;;;;;;;1.30;0.60;;;;;;;;;;10612164;27;20054;-75
2023/12/09 17:57:30;;;;;;;0.47;0.45;;;;;;;;;;10542968;22;20076;-74
2023/12/09 18:02:34;;;;;;;0.98;0.50;;;;;;;;;;10495231;28;20099;-75
2023/12/09 18:07:38;;;;;;;0.40;0.40;;;;;;;;;;10498567;28;20043;-74
2023/12/09 18:12:42;;;;;;;2.13;0.68;;;;;;;;;;10490523;28;20048;-75
2023/12/09 18:17:45;;;;;;;0.40;0.40;;;;;;;;;;10483803;28;20390;-75
2023/12/09 18:22:51;;;;;;;1.55;0.50;;;;;;;;;;10486074;28;20076;-75
2023/12/09 18:27:55;;;;;;;0.50;0.38;;;;;;;;;;10493140;28;20037;-75
2023/12/09 18:32:58;;;;;;;0.68;0.40;;;;;;;;;;10487009;28;20040;-75
2023/12/09 18:38:03;;;;;;;0.70;0.50;;;;;;;;;;10488263;28;20567;-75
2023/12/09 18:43:07;;;;;;;0.40;0.40;;;;;;;;;;10489918;28;20055;-75
2023/12/09 18:48:10;;;;;;;0.40;0.40;;;;;;;;;;10489861;28;20044;-75
2023/12/09 18:53:15;;;;;;;0.52;0.52;;;;;;;;;;10486765;28;20037;-75
2023/12/09 18:58:18;;;;;;;0.40;0.40;;;;;;;;;;10486162;28;20071;-75
2023/12/09 19:03:21;;;;;;;0.40;0.40;;;;;;;;;;10489007;28;20266;-75
2023/12/09 19:08:26;;;;;;;0.90;0.47;;;;;;;;;;10497774;28;20105;-75
2023/12/09 19:13:29;;;;;;;0.30;0.30;;;;;;;;;;10491318;28;20305;-75
2023/12/09 19:18:33;;;;;;;0.40;0.40;;;;;;;;;;10487330;28;20067;-75
2023/12/09 19:23:37;;;;;;;0.73;0.68;;;;;;;;;;10485762;28;20071;-75
2023/12/09 19:28:41;;;;;;;0.90;0.85;;;;;;;;;;10488816;28;20045;-75
2023/12/09 19:33:44;;;;;;;0.70;0.70;;;;;;;;;;10491217;28;20052;-75
2023/12/09 19:38:48;;;;;;;0.60;0.60;;;;;;;;;;10495016;28;20044;-75
2023/12/09 19:43:51;;;;;;;1.02;0.90;;;;;;;;;;10489064;28;20045;-75
2023/12/09 19:48:55;;;;;;;0.50;0.50;;;;;;;;;;10493206;28;20041;-75
2023/12/09 19:54:00;;;;;;;1.20;0.80;;;;;;;;;;10487881;28;20123;-75
2023/12/09 19:59:04;;;;;;;1.02;0.93;;;;;;;;;;10493540;28;20059;-75
2023/12/09 20:04:07;;;;;;;1.35;1.08;;;;;;;;;;10493123;28;20565;-75
2023/12/09 20:09:12;;;;;;;1.00;0.82;;;;;;;;;;10482322;28;20106;-75
2023/12/09 20:14:15;;;;;;;1.45;1.00;;;;;;;;;;10489720;28;20041;-75
2023/12/09 20:19:18;;;;;;;1.08;0.98;;;;;;;;;;10498147;28;20041;-75
2023/12/09 20:24:23;;;;;;;0.30;0.30;;;;;;;;;;10496474;28;20047;-75
2023/12/09 20:29:26;;;;;;;0.50;0.40;;;;;;;;;;10492044;28;20040;-75
2023/12/09 20:34:30;;;;;;;0.30;0.30;;;;;;;;;;10499082;28;20062;-75
2023/12/09 20:39:34;;;;;;;0.30;0.30;;;;;;;;;;10500948;28;20119;-75
2023/12/09 20:44:37;;;;;;;0.47;0.47;;;;;;;;;;10491852;28;20033;-74
2023/12/09 20:49:41;;;;;;;0.40;0.40;;;;;;;;;;10492143;28;20037;-75
2023/12/09 20:54:46;;;;;;;1.33;0.88;;;;;;;;;;10494737;28;20046;-75
2023/12/09 20:59:50;;;;;;;0.87;0.70;;;;;;;;;;10496261;28;20043;-75
2023/12/09 21:04:53;;;;;;;1.55;0.90;;;;;;;;;;10495403;28;20032;-75
2023/12/09 21:09:58;;;;;;;1.08;0.80;;;;;;;;;;10491888;28;20055;-75
2023/12/09 21:15:01;;;;;;;2.03;0.73;;;;;;;;;;10491749;28;20047;-75
2023/12/09 21:20:05;;;;;;;1.92;1.08;;;;;;;;;;10492101;28;20128;-76
2023/12/09 21:25:10;;;;;;;2.78;1.00;;;;;;;;;;10498663;28;20105;-74
2023/12/09 21:30:14;;;;;;;3.47;1.15;;;;;;;;;;10496119;28;20051;-74
2023/12/09 21:35:17;;;;;;;4.22;1.20;;;;;;;;;;10495300;28;20056;-74
2023/12/09 21:40:22;;;;;;;3.55;1.73;;;;;;;;;;10497451;28;20043;-74
2023/12/09 21:45:25;;;;;;;6.35;1.63;;;;;;;;;;10494555;28;20040;-75
2023/12/09 21:50:29;;;;;;;3.78;1.38;;;;;;;;;;10491213;28;20040;-74
2023/12/09 21:55:33;;;;;;;8.05;1.63;;;;;;;;;;10489076;28;20036;-74
2023/12/09 22:00:36;;;;;;;4.90;2.03;;;;;;;;;;10489478;28;20044;-75
2023/12/09 22:05:40;;;;;;;7.68;2.20;;;;;;;;;;10489543;28;20537;-74
2023/12/09 22:10:44;;;;;;;7.53;2.25;;;;;;;;;;10489035;28;20415;-74
2023/12/09 22:15:48;;;;;;;13.05;2.65;;;;;;;;;;10491339;28;20036;-74
2023/12/09 22:20:51;;;;;;;11.35;2.40;;;;;;;;;;10493138;28;20039;-75
2023/12/09 22:25:55;;;;;;;8.63;2.55;;;;;;;;;;10488371;28;20044;-74
2023/12/09 22:31:02;;;;;;;15.73;4.45;;;;;;;;;;10500910;28;20044;-74
2023/12/09 22:36:05;;;;;;;;;;;;;;;;;;10491140;28;20043;-74
2023/12/09 22:41:19;;;;;;;16.13;3.83;;;;;;;;;;10485283;28;19921;-74
2023/12/09 22:46:27;;;;;;;11.15;2.88;;;;;;;;;;10492530;28;20116;-75
2023/12/09 22:51:30;;;;;;;17.92;3.75;;;;;;;;;;10485467;28;20056;-74
2023/12/09 22:56:35;;;;;;;15.60;3.78;;;;;;;;;;10496060;28;20032;-75
2023/12/09 23:01:39;;;;;;;21.75;4.03;;;;;;;;;;10489591;28;20047;-75
2023/12/09 23:06:42;;;;;;;16.08;4.65;;;;;;;;;;10488072;28;20043;-74
2023/12/09 23:11:49;;;;;;;13.70;3.75;;;;;;;;;;10492631;28;20044;-74
2023/12/09 23:16:52;;;;;;;15.52;3.17;;;;;;;;;;10488858;28;20048;-75
2023/12/09 23:21:55;;;;;;;14.20;4.15;;;;;;;;;;10490406;28;20173;-74
2023/12/09 23:27:00;;;;;;;18.08;4.10;;;;;;;;;;10494779;28;20039;-75
2023/12/09 23:32:04;;;;;;;14.02;3.88;;;;;;;;;;10488593;28;20044;-75
2023/12/09 23:37:07;;;;;;;21.92;4.65;;;;;;;;;;10489998;28;20044;-74
2023/12/09 23:42:12;;;;;;;17.15;4.32;;;;;;;;;;10490791;28;20280;-75
2023/12/09 23:47:15;;;;;;;15.20;5.25;;;;;;;;;;10485410;28;20114;-74
2023/12/09 23:52:18;;;;;;;17.20;4.05;;;;;;;;;;10486656;28;20135;-74
2023/12/09 23:57:23;;;;;;;17.50;4.20;;;;;;;;;;10594884;22;20432;-75
